This is the latest recevied weather packets stored in our database for station/object AA0PB. If no packets are shown the sender has not sent any weather packets the latest 10 day(s).
| Time | Temp. | Humidity | Pressure | Rain* | Wind** | Luminosity | Snow |
|---|---|---|---|---|---|---|---|
| 1777584385 | 26.67° C | 34% | 1017.1 hPa | 0 mm | - | 663 W/m² | - |
| 1777584081 | 26.11° C | 36% | 1017.1 hPa | 0 mm | - | 682 W/m² | - |
| 1777583781 | 25.56° C | 37% | 1017.1 hPa | 0 mm | - | 594 W/m² | - |
| 1777583475 | 26.11° C | 38% | 1017.1 hPa | 0 mm | - | 673 W/m² | - |
| 1777583169 | 26.67° C | 35% | 1017.1 hPa | 0 mm | - | 651 W/m² | - |
| 1777582865 | 26.67° C | 34% | 1017.3 hPa | 0 mm | - | 684 W/m² | - |
| 1777582563 | 25.56° C | 36% | 1017.2 hPa | 0 mm | - | 704 W/m² | - |
| 1777582257 | 25° C | 37% | 1017.4 hPa | 0 mm | - | 643 W/m² | - |
| 1777581949 | 24.44° C | 39% | 1017.4 hPa | 0 mm | - | 652 W/m² | - |
| 1777581644 | 24.44° C | 38% | 1017.6 hPa | 0 mm | - | 662 W/m² | - |
| 1777581339 | 25° C | 37% | 1017.6 hPa | 0 mm | - | 698 W/m² | - |
| 1777581034 | 25° C | 38% | 1017.7 hPa | 0 mm | - | 705 W/m² | - |
| 1777580733 | 24.44° C | 39% | 1017.5 hPa | 0 mm | - | 676 W/m² | - |
| 1777580430 | 25° C | 40% | 1017.8 hPa | 0 mm | - | 688 W/m² | - |
| 1777580125 | 24.44° C | 41% | 1017.7 hPa | 0 mm | - | 681 W/m² | - |
| 1777579822 | 24.44° C | 39% | 1017.8 hPa | 0 mm | - | 705 W/m² | - |
| 1777579520 | 23.89° C | 41% | 1017.6 hPa | 0 mm | - | 682 W/m² | - |
| 1777579215 | 24.44° C | 38% | 1017.7 hPa | 0 mm | - | 681 W/m² | - |
| 1777578911 | 24.44° C | 39% | 1017.8 hPa | 0 mm | - | 713 W/m² | - |
| 1777578606 | 25° C | 38% | 1017.8 hPa | 0 mm | - | 735 W/m² | - |
| 1777578301 | 24.44° C | 39% | 1018 hPa | 0 mm | - | 168 W/m² | - |
| 1777577997 | 23.33° C | 40% | 1018.2 hPa | 0 mm | - | 567 W/m² | - |
| 1777577697 | 23.33° C | 42% | 1018.1 hPa | 0 mm | - | 479 W/m² | - |
| 1777577395 | 23.33° C | 43% | 1018.1 hPa | 0 mm | - | 477 W/m² | - |
| 1777577091 | 22.78° C | 44% | 1018.3 hPa | 0 mm | - | 591 W/m² | - |
* Rain latest hour (hover to see other rain measurements)
** Current wind speed in m/s (hover to see current wind gust speed)